createdAt,value
2024-02-11T00:00:36.369Z,61.20
2024-02-11T00:01:59.944Z,71.50
2024-02-11T00:03:03.242Z,76.50
2024-02-11T00:04:06.722Z,80.80
2024-02-11T00:05:10.627Z,83.90
2024-02-11T00:06:15.448Z,78.20
2024-02-11T00:07:18.846Z,81.80
2024-02-11T00:08:21.676Z,76.70
2024-02-11T00:09:25.272Z,79.00
2024-02-11T00:10:28.235Z,76.20
2024-02-11T00:11:31.328Z,77.10
2024-02-11T00:12:34.259Z,87.20
2024-02-11T00:13:37.343Z,78.20
2024-02-11T00:14:40.490Z,78.30
2024-02-11T00:15:45.046Z,78.80
2024-02-11T00:16:48.962Z,72.00
2024-02-11T00:17:52.058Z,78.70
2024-02-11T00:18:55.097Z,81.30
2024-02-11T00:19:58.194Z,83.20
2024-02-11T00:21:02.918Z,76.80
2024-02-11T00:22:05.930Z,78.20
2024-02-11T00:23:08.932Z,79.00
2024-02-11T00:24:11.972Z,77.50
2024-02-11T00:25:15.888Z,79.90
2024-02-11T00:26:18.746Z,83.20
2024-02-11T00:27:24.626Z,80.00
2024-02-11T00:28:27.886Z,70.90
2024-02-11T00:29:30.799Z,69.80
2024-02-11T00:30:33.817Z,74.90
2024-02-11T00:31:39.275Z,65.80
2024-02-11T00:32:42.216Z,72.40
2024-02-11T00:33:46.105Z,73.80
2024-02-11T00:34:49.043Z,79.70
2024-02-11T00:35:52.634Z,77.70
2024-02-11T00:36:55.723Z,78.00
2024-02-11T00:38:00.268Z,77.40
2024-02-11T00:39:06.671Z,81.50
2024-02-11T00:40:11.290Z,72.40
2024-02-11T00:41:14.295Z,80.30
2024-02-11T00:42:20.936Z,81.70
2024-02-11T00:43:23.909Z,78.30
2024-02-11T00:44:26.849Z,70.80
2024-02-11T00:45:30.372Z,68.60
2024-02-11T00:46:33.272Z,75.30
2024-02-11T00:47:37.380Z,67.40
2024-02-11T00:48:40.486Z,72.70
2024-02-11T00:49:45.231Z,69.20
2024-02-11T00:50:49.684Z,72.30
2024-02-11T00:51:52.509Z,72.50
2024-02-11T00:52:55.460Z,69.50
2024-02-11T00:53:58.795Z,71.80
2024-02-11T00:55:01.791Z,77.60
2024-02-11T00:56:05.011Z,73.50
2024-02-11T00:57:08.642Z,74.00
2024-02-11T00:58:11.778Z,68.60
2024-02-11T00:59:16.211Z,74.10
2024-02-11T01:00:19.679Z,66.40
2024-02-11T01:01:23.775Z,67.00
2024-02-11T01:02:26.764Z,68.10
2024-02-11T01:03:30.794Z,69.50
2024-02-11T01:04:33.953Z,68.80
2024-02-11T01:05:37.684Z,71.60
2024-02-11T01:06:40.620Z,74.60
2024-02-11T01:07:43.720Z,69.50
2024-02-11T01:08:47.886Z,73.50
2024-02-11T01:09:50.815Z,75.50
2024-02-11T01:10:53.859Z,72.20
2024-02-11T01:11:59.116Z,71.90
2024-02-11T01:13:02.218Z,68.70
2024-02-11T01:14:06.345Z,70.50
2024-02-11T01:15:14.726Z,74.60
2024-02-11T01:16:17.811Z,77.70
2024-02-11T01:17:21.197Z,80.70
2024-02-11T01:18:24.168Z,69.40
2024-02-11T01:19:27.273Z,73.10
2024-02-11T01:20:30.469Z,67.60
2024-02-11T01:21:33.613Z,72.20
2024-02-11T01:22:36.978Z,70.20
2024-02-11T01:23:39.858Z,70.80
2024-02-11T01:24:42.995Z,65.00
2024-02-11T01:25:46.221Z,66.60
2024-02-11T01:26:50.532Z,67.60
2024-02-11T01:27:53.709Z,60.90
2024-02-11T01:28:56.700Z,66.00
2024-02-11T01:30:00.064Z,66.90
2024-02-11T01:31:03.223Z,64.40
2024-02-11T01:32:06.660Z,64.00
2024-02-11T01:33:10.562Z,69.00
2024-02-11T01:34:13.647Z,61.80
2024-02-11T01:35:16.770Z,64.60
2024-02-11T01:36:19.671Z,62.90
2024-02-11T01:37:22.748Z,65.90
2024-02-11T01:38:25.654Z,66.10
2024-02-11T01:39:28.767Z,63.00
2024-02-11T01:40:32.780Z,63.30
2024-02-11T01:41:35.668Z,66.30
2024-02-11T01:42:40.365Z,66.30
2024-02-11T01:43:43.357Z,63.50
2024-02-11T01:44:46.331Z,65.70
2024-02-11T01:45:49.621Z,66.40
2024-02-11T01:46:52.698Z,62.90
2024-02-11T01:47:55.688Z,64.60
2024-02-11T01:49:06.243Z,66.20
2024-02-11T01:50:15.198Z,68.50
2024-02-11T01:51:18.793Z,68.50
2024-02-11T01:52:21.781Z,65.00
2024-02-11T01:53:28.211Z,68.70
2024-02-11T01:54:31.501Z,61.60
2024-02-11T01:55:35.816Z,72.80
2024-02-11T01:56:40.036Z,68.20
2024-02-11T01:57:43.927Z,56.80
2024-02-11T01:58:49.359Z,67.30
2024-02-11T01:59:52.289Z,67.00
2024-02-11T02:00:56.460Z,69.60
2024-02-11T02:02:00.071Z,66.20
2024-02-11T02:03:05.312Z,65.60
2024-02-11T02:04:08.530Z,70.40
2024-02-11T02:05:11.792Z,64.10
2024-02-11T02:06:18.163Z,68.00
2024-02-11T02:07:21.704Z,65.10
2024-02-11T02:08:24.938Z,77.20
2024-02-11T02:09:27.963Z,75.90
2024-02-11T02:10:31.806Z,73.10
2024-02-11T02:11:36.430Z,76.70
2024-02-11T02:12:41.929Z,64.40
2024-02-11T02:13:45.042Z,66.60
2024-02-11T02:14:51.568Z,75.80
2024-02-11T02:15:54.493Z,70.40
2024-02-11T02:16:58.011Z,67.30
2024-02-11T02:18:01.156Z,91.30
2024-02-11T02:19:04.877Z,67.90
2024-02-11T02:20:08.941Z,78.40
2024-02-11T02:21:12.189Z,67.30
2024-02-11T02:22:15.108Z,66.40
2024-02-11T02:23:18.256Z,68.60
2024-02-11T02:24:21.901Z,73.40
2024-02-11T02:25:25.522Z,64.30
2024-02-11T02:26:28.466Z,62.20
2024-02-11T02:27:31.351Z,55.40
2024-02-11T02:28:38.460Z,64.10
2024-02-11T02:29:41.428Z,58.90
2024-02-11T02:32:35.953Z,78.30
2024-02-11T02:33:39.470Z,64.90
2024-02-11T02:34:44.620Z,73.70
2024-02-11T02:35:47.736Z,80.60
2024-02-11T02:36:51.982Z,68.00
2024-02-11T02:37:55.507Z,77.50
2024-02-11T02:38:58.831Z,65.40
2024-02-11T02:40:02.047Z,73.00
2024-02-11T02:41:05.152Z,55.80
2024-02-11T02:42:08.286Z,64.60
2024-02-11T02:43:13.207Z,83.90
2024-02-11T02:44:16.539Z,53.80
2024-02-11T02:45:19.755Z,61.80
2024-02-11T02:46:22.888Z,67.00
2024-02-11T02:47:25.881Z,61.70
2024-02-11T02:48:30.279Z,64.90
2024-02-11T02:49:33.640Z,55.30
2024-02-11T02:50:36.894Z,55.30
2024-02-11T02:51:42.749Z,61.10
2024-02-11T02:52:45.833Z,56.80
2024-02-11T02:53:50.539Z,55.40
2024-02-11T02:54:53.518Z,47.90
2024-02-11T02:55:57.742Z,49.70
2024-02-11T02:57:00.796Z,53.00
2024-02-11T02:58:08.715Z,59.70
2024-02-11T02:59:11.958Z,53.30
2024-02-11T03:00:18.097Z,55.40
2024-02-11T03:01:27.296Z,47.80
2024-02-11T03:02:30.337Z,64.10
2024-02-11T03:03:33.696Z,57.60
2024-02-11T03:04:39.548Z,56.70
2024-02-11T03:05:45.327Z,52.80
2024-02-11T03:06:48.773Z,53.90
2024-02-11T03:07:53.692Z,57.60
2024-02-11T03:08:57.406Z,62.10
2024-02-11T03:10:02.149Z,53.00
2024-02-11T03:11:05.155Z,63.20
2024-02-11T03:12:08.386Z,59.50
2024-02-11T03:13:11.288Z,52.40
2024-02-11T03:14:14.219Z,56.10
2024-02-11T03:15:17.634Z,48.60
2024-02-11T03:16:20.685Z,61.60
2024-02-11T03:17:24.195Z,56.00
2024-02-11T03:18:27.286Z,56.00
2024-02-11T03:19:30.188Z,56.70
2024-02-11T03:20:35.282Z,53.90
2024-02-11T03:21:40.009Z,54.90
2024-02-11T03:22:44.209Z,57.30
2024-02-11T03:23:47.202Z,53.80
2024-02-11T03:24:50.129Z,54.70
2024-02-11T03:25:53.241Z,50.10
2024-02-11T03:26:58.021Z,55.60
2024-02-11T03:28:01.065Z,54.70
2024-02-11T03:29:04.848Z,51.80
2024-02-11T03:30:09.301Z,52.90
2024-02-11T03:31:12.346Z,55.10
2024-02-11T03:32:15.312Z,52.30
2024-02-11T03:33:18.193Z,50.90
2024-02-11T03:34:21.216Z,52.40
2024-02-11T03:35:24.671Z,54.20
2024-02-11T03:36:28.246Z,51.70
2024-02-11T03:37:35.063Z,55.40
2024-02-11T03:38:38.050Z,52.30
2024-02-11T03:39:41.000Z,52.00
2024-02-11T03:40:43.976Z,55.40
2024-02-11T03:41:47.660Z,52.50
2024-02-11T03:42:51.937Z,56.30
2024-02-11T03:43:55.074Z,52.00
2024-02-11T03:44:58.012Z,53.90
2024-02-11T03:46:01.914Z,50.40
2024-02-11T03:47:05.547Z,56.60
2024-02-11T03:48:09.016Z,48.50
2024-02-11T03:49:12.172Z,51.40
2024-02-11T03:50:16.103Z,51.20
2024-02-11T03:51:19.334Z,51.30
2024-02-11T03:52:22.261Z,54.80
2024-02-11T03:53:25.736Z,52.80
2024-02-11T03:54:29.434Z,51.00
2024-02-11T03:55:32.751Z,53.50
2024-02-11T03:56:40.966Z,51.70
2024-02-11T03:57:44.007Z,53.40
2024-02-11T03:58:46.975Z,56.60
2024-02-11T03:59:50.308Z,56.80
2024-02-11T04:00:53.393Z,54.50
2024-02-11T04:01:57.166Z,58.20
2024-02-11T04:03:00.977Z,55.40
2024-02-11T04:04:04.556Z,52.30
2024-02-11T04:05:08.122Z,57.90
2024-02-11T04:06:13.226Z,55.80
2024-02-11T04:07:17.014Z,59.90
2024-02-11T04:08:20.197Z,62.90
2024-02-11T04:09:29.725Z,58.90
2024-02-11T04:10:37.890Z,54.50
2024-02-11T04:11:43.158Z,56.60
2024-02-11T04:12:55.995Z,57.90
2024-02-11T04:14:00.447Z,52.70
2024-02-11T04:15:04.017Z,58.30
2024-02-11T04:16:12.258Z,59.80
2024-02-11T04:17:15.985Z,57.70
2024-02-11T04:18:22.559Z,58.60
2024-02-11T04:19:26.798Z,53.10
2024-02-11T04:20:30.263Z,56.50
2024-02-11T04:21:36.538Z,59.00
2024-02-11T04:22:39.673Z,54.10
2024-02-11T04:23:47.920Z,61.30
2024-02-11T04:24:50.971Z,61.70
2024-02-11T04:25:54.259Z,54.40
2024-02-11T04:26:58.617Z,52.10
2024-02-11T04:28:12.361Z,53.90
2024-02-11T04:29:15.839Z,50.50
2024-02-11T04:30:22.286Z,59.70
2024-02-11T04:31:27.051Z,61.90
2024-02-11T04:32:30.128Z,60.40
2024-02-11T04:33:33.037Z,57.50
2024-02-11T04:34:36.058Z,52.20
2024-02-11T04:35:40.791Z,56.00
2024-02-11T04:36:43.736Z,54.40
2024-02-11T04:37:50.793Z,55.50
2024-02-11T04:38:53.947Z,54.20
2024-02-11T04:39:56.947Z,55.40
2024-02-11T04:41:02.398Z,51.80
2024-02-11T04:42:05.843Z,50.20
2024-02-11T04:43:08.980Z,55.00
2024-02-11T04:44:12.790Z,50.60
2024-02-11T04:45:17.236Z,53.40
2024-02-11T04:46:20.802Z,56.90
2024-02-11T04:47:24.959Z,53.30
2024-02-11T04:48:28.094Z,48.80
2024-02-11T04:49:31.106Z,52.80
2024-02-11T04:50:36.320Z,50.70
2024-02-11T04:51:40.620Z,57.40
2024-02-11T04:52:50.022Z,49.80
2024-02-11T04:53:54.319Z,50.00
2024-02-11T04:54:58.089Z,50.10
2024-02-11T04:56:01.230Z,51.30
2024-02-11T04:57:05.077Z,48.30
2024-02-11T04:58:15.437Z,51.90
2024-02-11T05:00:25.472Z,51.50
2024-02-11T05:01:28.820Z,53.70
2024-02-11T05:02:31.740Z,50.50
2024-02-11T05:03:34.816Z,50.10
2024-02-11T05:04:37.760Z,53.50
2024-02-11T05:05:42.715Z,54.70
2024-02-11T05:06:47.692Z,45.10
2024-02-11T05:07:50.755Z,47.40
2024-02-11T05:08:56.723Z,54.60
2024-02-11T05:10:00.335Z,55.20
2024-02-11T05:11:03.893Z,51.00
2024-02-11T05:12:09.634Z,49.60
2024-02-11T05:13:15.080Z,47.80
2024-02-11T05:14:18.348Z,50.80
2024-02-11T05:15:21.812Z,49.80
2024-02-11T05:16:29.375Z,52.50
2024-02-11T05:17:36.534Z,49.70
2024-02-11T05:18:40.088Z,48.30
2024-02-11T05:19:47.102Z,51.10
2024-02-11T05:20:50.306Z,52.20
2024-02-11T05:21:53.534Z,44.80
2024-02-11T05:22:59.747Z,46.50
2024-02-11T05:24:03.188Z,51.10
2024-02-11T05:25:06.389Z,49.80
2024-02-11T05:26:13.746Z,45.30
2024-02-11T05:27:16.811Z,47.70
2024-02-11T05:28:21.029Z,42.90
2024-02-11T05:29:25.431Z,49.70
2024-02-11T05:30:30.349Z,51.00
2024-02-11T05:31:33.322Z,43.90
2024-02-11T05:32:36.900Z,48.50
2024-02-11T05:33:40.242Z,43.80
2024-02-11T05:34:43.526Z,49.90
2024-02-11T05:35:47.843Z,46.50
2024-02-11T05:36:51.277Z,45.20
2024-02-11T05:38:00.658Z,47.30
2024-02-11T05:39:04.216Z,45.20
2024-02-11T05:40:11.510Z,47.40
2024-02-11T05:41:14.558Z,43.90
2024-02-11T05:42:18.584Z,51.70
2024-02-11T05:43:22.081Z,50.90
2024-02-11T05:44:25.328Z,49.00
2024-02-11T05:45:29.240Z,49.70
2024-02-11T05:46:32.198Z,50.30
2024-02-11T05:47:35.120Z,47.90
2024-02-11T05:48:38.754Z,50.70
2024-02-11T05:49:43.188Z,53.20
2024-02-11T05:50:47.692Z,53.10
2024-02-11T05:51:50.913Z,52.60
2024-02-11T05:52:55.519Z,47.50
2024-02-11T05:53:58.468Z,48.10
2024-02-11T05:55:02.047Z,49.10
2024-02-11T05:56:06.411Z,46.60
2024-02-11T05:57:11.055Z,44.30
2024-02-11T05:58:14.746Z,42.70
2024-02-11T05:59:18.791Z,45.60
2024-02-11T06:00:27.016Z,47.50
2024-02-11T06:01:30.037Z,42.40
2024-02-11T06:02:32.987Z,43.40
2024-02-11T06:03:37.514Z,42.30
2024-02-11T06:04:40.677Z,49.00
2024-02-11T06:05:43.921Z,41.30
2024-02-11T06:06:47.483Z,42.90
2024-02-11T06:07:56.129Z,41.20
2024-02-11T06:08:59.302Z,45.20
2024-02-11T06:10:02.610Z,42.60
2024-02-11T06:11:05.556Z,42.90
2024-02-11T06:12:09.756Z,39.00
2024-02-11T06:13:13.516Z,40.60
2024-02-11T06:14:16.662Z,39.90
2024-02-11T06:15:23.663Z,39.20
2024-02-11T06:16:26.710Z,40.70
2024-02-11T06:17:30.383Z,41.60
2024-02-11T06:18:33.433Z,39.00
2024-02-11T06:19:39.103Z,40.30
2024-02-11T06:20:42.416Z,41.50
2024-02-11T06:21:45.925Z,41.70
2024-02-11T06:22:56.325Z,40.90
2024-02-11T06:23:59.332Z,42.10
2024-02-11T06:25:02.781Z,41.20
2024-02-11T06:26:05.936Z,40.40
2024-02-11T06:27:10.491Z,42.50
2024-02-11T06:28:13.542Z,45.30
2024-02-11T06:29:16.725Z,49.50
2024-02-11T06:30:21.150Z,51.00
2024-02-11T06:31:24.457Z,48.00
2024-02-11T06:32:28.112Z,50.70
2024-02-11T06:33:31.300Z,50.00
2024-02-11T06:34:36.149Z,48.70
2024-02-11T06:35:41.019Z,47.30
2024-02-11T06:36:44.166Z,46.10
2024-02-11T06:37:50.014Z,46.70
2024-02-11T06:38:53.743Z,49.10
2024-02-11T06:39:56.892Z,49.80
2024-02-11T06:40:59.848Z,48.30
2024-02-11T06:42:04.342Z,49.00
2024-02-11T06:43:13.198Z,50.90
2024-02-11T06:44:17.824Z,47.90
2024-02-11T06:45:21.445Z,48.00
2024-02-11T06:46:24.455Z,51.20
2024-02-11T06:47:28.133Z,52.00
2024-02-11T06:48:31.221Z,51.20
2024-02-11T06:49:34.846Z,51.40
2024-02-11T06:50:37.844Z,45.30
2024-02-11T06:51:40.773Z,46.90
2024-02-11T06:52:44.871Z,48.50
2024-02-11T06:53:48.082Z,43.40
2024-02-11T06:54:51.466Z,37.50
2024-02-11T06:55:54.601Z,38.60
2024-02-11T06:56:57.791Z,36.00
2024-02-11T06:58:00.705Z,37.50
2024-02-11T06:59:05.113Z,34.90
2024-02-11T07:00:10.543Z,35.20
2024-02-11T07:01:14.335Z,34.30
2024-02-11T07:02:17.389Z,33.50
2024-02-11T07:03:20.928Z,30.20
2024-02-11T07:04:24.745Z,27.10
2024-02-11T07:05:28.010Z,30.80
2024-02-11T07:06:31.613Z,28.30
2024-02-11T07:07:35.006Z,28.60
2024-02-11T07:08:38.184Z,25.90
2024-02-11T07:09:42.339Z,28.20
2024-02-11T07:10:45.606Z,27.00
2024-02-11T07:11:50.259Z,25.20
2024-02-11T07:12:53.553Z,26.60
2024-02-11T07:13:56.454Z,28.10
2024-02-11T07:14:59.354Z,29.50
2024-02-11T07:16:02.474Z,26.80
2024-02-11T07:17:05.445Z,28.60
2024-02-11T07:18:10.056Z,24.00
2024-02-11T07:19:13.766Z,23.80
2024-02-11T07:20:17.717Z,26.20
2024-02-11T07:21:22.884Z,28.50
2024-02-11T07:22:28.791Z,26.00
2024-02-11T07:23:33.328Z,26.90
2024-02-11T07:24:40.729Z,25.30
2024-02-11T07:25:43.785Z,27.20
2024-02-11T07:26:50.403Z,25.60
2024-02-11T07:27:53.263Z,27.60
2024-02-11T07:28:56.320Z,25.30
2024-02-11T07:29:59.376Z,26.20
2024-02-11T07:31:02.360Z,28.00
2024-02-11T07:32:05.585Z,26.80
2024-02-11T07:33:09.189Z,26.00
2024-02-11T07:34:12.409Z,24.90
2024-02-11T07:35:17.723Z,26.70
2024-02-11T07:36:23.884Z,24.80
2024-02-11T07:37:26.978Z,25.50
2024-02-11T07:38:31.931Z,25.00
2024-02-11T07:39:34.933Z,25.70
2024-02-11T07:40:38.241Z,26.00
2024-02-11T07:41:42.420Z,24.60
2024-02-11T07:42:47.402Z,25.40
2024-02-11T07:43:51.076Z,25.70
2024-02-11T07:44:54.018Z,23.90
2024-02-11T07:45:59.177Z,23.50
2024-02-11T07:47:03.442Z,23.10
2024-02-11T07:48:09.075Z,25.00
2024-02-11T07:49:14.498Z,26.00
2024-02-11T07:50:18.923Z,22.90
2024-02-11T07:51:23.851Z,23.50
2024-02-11T07:52:26.773Z,23.80
2024-02-11T07:53:29.762Z,25.70
2024-02-11T07:54:33.807Z,24.60
2024-02-11T07:55:36.967Z,22.80
2024-02-11T07:56:40.203Z,23.90
2024-02-11T07:57:43.095Z,20.70
2024-02-11T07:58:46.251Z,25.40
2024-02-11T07:59:49.332Z,22.70
2024-02-11T08:00:52.388Z,23.30
2024-02-11T08:01:57.013Z,25.30
2024-02-11T08:03:00.210Z,26.30
2024-02-11T08:04:03.270Z,23.40
2024-02-11T08:05:07.846Z,25.30
2024-02-11T08:06:11.141Z,22.00
2024-02-11T08:07:14.464Z,25.30
2024-02-11T08:08:17.341Z,21.70
2024-02-11T08:09:20.291Z,22.70
2024-02-11T08:10:23.437Z,22.60
2024-02-11T08:11:26.400Z,22.60
2024-02-11T08:12:29.562Z,22.80
2024-02-11T08:13:34.007Z,23.70
2024-02-11T08:14:39.897Z,24.50
2024-02-11T08:15:42.867Z,24.20
2024-02-11T08:16:47.204Z,23.70
2024-02-11T08:17:50.349Z,23.00
2024-02-11T08:18:55.962Z,23.40
2024-02-11T08:19:59.169Z,23.20
2024-02-11T08:21:03.814Z,22.70
2024-02-11T08:22:08.140Z,22.30
2024-02-11T08:23:11.365Z,20.80
2024-02-11T08:24:14.302Z,22.00
2024-02-11T08:25:17.751Z,22.80
2024-02-11T08:26:21.992Z,24.10
2024-02-11T08:27:25.054Z,23.10
2024-02-11T08:28:28.060Z,24.80
2024-02-11T08:29:30.962Z,24.30
2024-02-11T08:30:34.015Z,26.70
2024-02-11T08:31:36.931Z,23.60
2024-02-11T08:32:40.312Z,23.10
2024-02-11T08:33:47.305Z,24.90
2024-02-11T08:34:51.302Z,23.00
2024-02-11T08:35:54.227Z,22.40
2024-02-11T08:36:57.097Z,23.70
2024-02-11T08:37:59.983Z,22.90
2024-02-11T08:39:03.965Z,22.70
2024-02-11T08:40:08.718Z,23.90
2024-02-11T08:41:11.880Z,22.10
2024-02-11T08:42:15.559Z,22.90
2024-02-11T08:43:20.614Z,20.90
2024-02-11T08:44:25.335Z,22.90
2024-02-11T08:45:28.388Z,22.90
2024-02-11T08:46:31.432Z,22.70
2024-02-11T08:47:36.085Z,22.50
2024-02-11T08:48:39.238Z,21.30
2024-02-11T08:49:42.376Z,22.10
2024-02-11T08:50:45.519Z,22.00
2024-02-11T08:51:48.981Z,21.90
2024-02-11T08:52:51.952Z,21.30
2024-02-11T08:53:54.795Z,23.10
2024-02-11T08:54:57.686Z,22.00
2024-02-11T08:56:01.200Z,22.60
2024-02-11T08:57:04.470Z,19.90
2024-02-11T08:58:07.476Z,21.30
2024-02-11T08:59:14.467Z,21.50
2024-02-11T09:00:19.564Z,21.00
2024-02-11T09:01:22.539Z,25.40
2024-02-11T09:02:32.082Z,22.80
2024-02-11T09:03:38.802Z,23.10
2024-02-11T09:04:42.880Z,23.60
2024-02-11T09:05:46.795Z,24.20
2024-02-11T09:06:51.272Z,23.90
2024-02-11T09:07:54.304Z,23.50
2024-02-11T09:08:57.514Z,22.40
2024-02-11T09:10:00.865Z,24.10
2024-02-11T09:11:08.016Z,22.30
2024-02-11T09:12:12.152Z,27.70
2024-02-11T09:13:15.036Z,25.20
2024-02-11T09:14:18.413Z,23.50
2024-02-11T09:15:21.475Z,26.20
2024-02-11T09:16:27.579Z,24.10
2024-02-11T09:17:34.086Z,24.10
2024-02-11T09:18:37.750Z,24.60
2024-02-11T09:19:41.000Z,26.80
2024-02-11T09:20:44.574Z,24.60
2024-02-11T09:21:47.779Z,22.20
2024-02-11T09:22:51.273Z,22.60
2024-02-11T09:23:56.364Z,22.70
2024-02-11T09:24:59.662Z,23.10
2024-02-11T09:26:04.039Z,24.40
2024-02-11T09:27:12.171Z,24.60
2024-02-11T09:28:15.196Z,22.50
2024-02-11T09:29:19.151Z,21.70
2024-02-11T09:30:22.384Z,23.00
2024-02-11T09:31:25.820Z,23.30
2024-02-11T09:32:29.462Z,22.90
2024-02-11T09:33:32.813Z,24.50
2024-02-11T09:34:35.868Z,22.70
2024-02-11T09:35:39.232Z,24.10
2024-02-11T09:36:43.302Z,22.50
2024-02-11T09:37:46.512Z,22.10
2024-02-11T09:38:49.621Z,21.80
2024-02-11T09:39:52.517Z,22.40
2024-02-11T09:40:55.559Z,22.70
2024-02-11T09:41:58.481Z,26.00
2024-02-11T09:43:03.048Z,22.90
2024-02-11T09:44:08.006Z,24.70
2024-02-11T09:45:12.103Z,22.90
2024-02-11T09:46:18.467Z,24.50
2024-02-11T09:47:23.375Z,24.40
2024-02-11T09:48:27.469Z,22.90
2024-02-11T09:49:32.572Z,22.60
2024-02-11T09:50:36.391Z,24.50
2024-02-11T09:51:39.490Z,23.20
2024-02-11T09:52:42.460Z,24.10
2024-02-11T09:53:48.050Z,23.50
2024-02-11T09:54:52.122Z,21.70
2024-02-11T09:55:55.660Z,22.80
2024-02-11T09:57:03.826Z,20.90
2024-02-11T09:58:06.972Z,22.50
2024-02-11T09:59:14.725Z,23.90
2024-02-11T10:00:20.011Z,21.90
2024-02-11T10:01:23.156Z,24.00
2024-02-11T10:02:27.026Z,23.20
2024-02-11T10:03:31.850Z,25.00
2024-02-11T10:04:39.307Z,24.60
2024-02-11T10:05:45.090Z,21.60
2024-02-11T10:06:48.436Z,21.80
2024-02-11T10:07:55.726Z,22.20
2024-02-11T10:08:58.757Z,21.60
2024-02-11T10:10:04.240Z,24.10
2024-02-11T10:11:09.249Z,23.40
2024-02-11T10:12:12.353Z,24.20
2024-02-11T10:13:24.881Z,24.90
2024-02-11T10:14:31.045Z,24.10
2024-02-11T10:15:41.873Z,22.30
2024-02-11T10:16:44.822Z,21.90
2024-02-11T10:17:48.938Z,27.00
2024-02-11T10:18:52.293Z,23.90
2024-02-11T10:19:55.601Z,24.40
2024-02-11T10:20:59.192Z,24.90
2024-02-11T10:22:14.532Z,22.90
2024-02-11T10:23:25.512Z,24.20
2024-02-11T10:24:30.761Z,24.60
2024-02-11T10:25:38.121Z,21.80
2024-02-11T10:26:41.775Z,22.60
2024-02-11T10:27:45.798Z,22.60
2024-02-11T10:28:49.900Z,23.10
2024-02-11T10:29:53.035Z,25.20
2024-02-11T10:30:56.653Z,21.90
2024-02-11T10:31:59.621Z,22.50
2024-02-11T10:33:04.176Z,20.90
2024-02-11T10:34:09.969Z,24.50
2024-02-11T10:35:16.239Z,24.50
2024-02-11T10:36:19.950Z,22.10
2024-02-11T10:37:23.062Z,23.30
2024-02-11T10:38:26.672Z,22.70
2024-02-11T10:39:30.290Z,22.40
2024-02-11T10:40:36.663Z,22.30
2024-02-11T10:41:42.692Z,23.00
2024-02-11T10:42:46.757Z,24.40
2024-02-11T10:43:52.916Z,21.90
2024-02-11T10:44:55.962Z,22.60
2024-02-11T10:46:00.374Z,23.80
2024-02-11T10:47:06.115Z,24.80
2024-02-11T10:48:09.088Z,22.30
2024-02-11T10:49:13.041Z,22.90
2024-02-11T10:50:16.102Z,23.10
2024-02-11T10:51:24.876Z,22.20
2024-02-11T10:52:44.771Z,23.10
2024-02-11T10:53:54.174Z,24.90
2024-02-11T10:55:03.355Z,23.60
2024-02-11T10:56:11.058Z,23.60
2024-02-11T10:57:21.358Z,23.30
2024-02-11T10:59:38.920Z,24.70
2024-02-11T11:01:47.168Z,27.00
2024-02-11T11:02:57.303Z,23.60
2024-02-11T11:04:02.129Z,23.70
2024-02-11T11:05:13.196Z,23.10
2024-02-11T11:06:19.752Z,23.00
2024-02-11T11:07:24.654Z,22.40
2024-02-11T11:08:27.890Z,23.50
2024-02-11T11:09:31.617Z,26.00
2024-02-11T11:10:38.760Z,23.10
2024-02-11T11:11:41.782Z,23.00
2024-02-11T11:12:54.896Z,21.30
2024-02-11T11:13:59.376Z,21.50
2024-02-11T11:15:10.138Z,24.10
2024-02-11T11:16:13.081Z,20.20
2024-02-11T11:17:25.437Z,22.80
2024-02-11T11:18:28.642Z,20.60
2024-02-11T11:19:33.657Z,22.70
2024-02-11T11:20:38.604Z,23.10
2024-02-11T11:21:57.218Z,21.60
2024-02-11T11:23:01.633Z,20.30
2024-02-11T11:24:04.913Z,22.70
2024-02-11T11:25:15.288Z,21.20
2024-02-11T11:26:22.596Z,22.30
2024-02-11T11:27:26.433Z,25.10
2024-02-11T11:28:31.612Z,21.20
2024-02-11T11:29:34.604Z,22.40
2024-02-11T11:30:37.559Z,21.10
2024-02-11T11:31:41.105Z,21.80
2024-02-11T11:32:50.396Z,20.90
2024-02-11T11:33:54.129Z,21.10
2024-02-11T11:34:57.831Z,22.40
2024-02-11T11:36:03.196Z,20.90
2024-02-11T11:37:16.830Z,21.50
2024-02-11T11:38:23.407Z,22.90
2024-02-11T11:39:30.181Z,22.90
2024-02-11T11:40:38.504Z,21.80
2024-02-11T11:41:42.310Z,23.30
2024-02-11T11:42:45.450Z,22.60
2024-02-11T11:43:48.521Z,22.80
2024-02-11T11:44:51.385Z,23.20
2024-02-11T11:45:55.706Z,21.80
2024-02-11T11:46:59.363Z,22.40
2024-02-11T11:48:03.464Z,23.10
2024-02-11T11:49:06.878Z,22.00
2024-02-11T11:50:10.749Z,20.00
2024-02-11T11:51:13.950Z,20.80
2024-02-11T11:52:17.534Z,20.80
2024-02-11T11:53:22.273Z,20.60
2024-02-11T11:54:32.384Z,20.40
2024-02-11T11:55:35.377Z,23.20
2024-02-11T11:56:38.753Z,20.40
2024-02-11T11:57:41.902Z,21.80
2024-02-11T11:58:44.858Z,21.10
2024-02-11T11:59:57.137Z,22.50
2024-02-11T12:01:08.847Z,22.60
2024-02-11T12:02:11.974Z,21.20
2024-02-11T12:03:14.922Z,23.30
2024-02-11T12:04:24.136Z,21.90
2024-02-11T12:05:27.410Z,20.60
2024-02-11T12:06:30.597Z,21.50
2024-02-11T12:07:34.682Z,22.70
2024-02-11T12:08:39.241Z,20.80
2024-02-11T12:09:42.570Z,20.60
2024-02-11T12:10:55.242Z,20.80
2024-02-11T12:11:59.283Z,22.50
2024-02-11T12:13:02.390Z,21.40
2024-02-11T12:14:05.454Z,20.30
2024-02-11T12:15:10.986Z,19.70
2024-02-11T12:16:19.235Z,19.40
2024-02-11T12:17:22.504Z,20.60
2024-02-11T12:18:27.367Z,19.10
2024-02-11T12:19:39.847Z,20.70
2024-02-11T12:20:44.951Z,19.80
2024-02-11T12:21:51.208Z,20.40
2024-02-11T12:22:56.114Z,21.30
2024-02-11T12:24:02.097Z,20.10
2024-02-11T12:25:05.566Z,19.90
2024-02-11T12:26:08.935Z,21.40
2024-02-11T12:27:15.618Z,20.20
2024-02-11T12:28:26.312Z,20.80
2024-02-11T12:30:32.186Z,19.60
2024-02-11T12:31:37.069Z,20.40
2024-02-11T12:32:40.053Z,20.30
2024-02-11T12:33:54.100Z,20.30
2024-02-11T12:34:58.225Z,23.40
2024-02-11T12:36:07.302Z,19.80
2024-02-11T12:37:13.036Z,21.20
2024-02-11T12:38:16.131Z,20.40
2024-02-11T12:39:19.807Z,21.40
2024-02-11T12:40:24.436Z,23.00
2024-02-11T12:41:28.332Z,21.70
2024-02-11T12:42:32.327Z,22.60
2024-02-11T12:43:35.863Z,22.10
2024-02-11T12:44:38.763Z,20.30
2024-02-11T12:45:41.686Z,20.00
2024-02-11T12:46:45.476Z,20.00
2024-02-11T12:47:49.078Z,20.50
2024-02-11T12:48:52.414Z,22.50
2024-02-11T12:49:55.585Z,20.70
2024-02-11T12:50:58.699Z,21.40
2024-02-11T12:52:05.074Z,21.00
2024-02-11T12:53:12.561Z,21.10
2024-02-11T12:54:16.537Z,18.90
2024-02-11T12:55:20.929Z,19.60
2024-02-11T12:56:24.518Z,20.80
2024-02-11T12:57:28.433Z,21.50
2024-02-11T12:58:31.303Z,22.40
2024-02-11T12:59:34.374Z,20.40
2024-02-11T13:00:37.340Z,20.90
2024-02-11T13:01:40.407Z,20.40
2024-02-11T13:02:43.961Z,20.40
2024-02-11T13:03:47.769Z,20.00
2024-02-11T13:04:50.860Z,24.30
2024-02-11T13:05:55.098Z,20.20
2024-02-11T13:06:58.418Z,21.00
2024-02-11T13:08:01.451Z,20.80
2024-02-11T13:09:04.513Z,19.40
2024-02-11T13:10:11.766Z,22.40
2024-02-11T13:11:15.803Z,20.30
2024-02-11T13:12:19.261Z,19.50
2024-02-11T13:13:22.149Z,20.40
2024-02-11T13:14:25.232Z,20.20
2024-02-11T13:15:28.499Z,20.60
2024-02-11T13:16:33.655Z,20.90
2024-02-11T13:17:37.712Z,19.70
2024-02-11T13:18:40.907Z,20.20
2024-02-11T13:19:44.129Z,22.10
2024-02-11T13:20:47.374Z,23.20
2024-02-11T13:21:52.889Z,20.50
2024-02-11T13:22:56.268Z,19.90
2024-02-11T13:23:59.166Z,21.40
2024-02-11T13:25:02.476Z,23.00
2024-02-11T13:26:05.915Z,19.30
2024-02-11T13:27:09.030Z,20.90
2024-02-11T13:28:11.964Z,20.80
2024-02-11T13:29:14.915Z,22.40
2024-02-11T13:30:18.961Z,23.00
2024-02-11T13:31:26.826Z,23.20
2024-02-11T13:32:30.690Z,24.80
2024-02-11T13:33:34.078Z,23.80
2024-02-11T13:34:37.408Z,23.10
2024-02-11T13:35:40.735Z,24.80
2024-02-11T13:36:45.184Z,22.80
2024-02-11T13:37:48.188Z,25.60
2024-02-11T13:38:51.979Z,23.30
2024-02-11T13:39:57.879Z,23.10
2024-02-11T13:41:01.356Z,25.30
2024-02-11T13:42:06.146Z,23.50
2024-02-11T13:43:09.057Z,22.60
2024-02-11T13:44:12.096Z,23.80
2024-02-11T13:45:15.396Z,22.30
2024-02-11T13:46:18.420Z,24.30
2024-02-11T13:47:21.717Z,25.90
2024-02-11T13:48:24.694Z,26.80
2024-02-11T13:49:27.639Z,25.10
2024-02-11T13:50:31.007Z,24.90
2024-02-11T13:51:34.131Z,25.30
2024-02-11T13:52:37.577Z,26.30
2024-02-11T13:53:40.737Z,25.40
2024-02-11T13:54:43.792Z,26.40